Time;durP1;ratioP1;P1;durP2;ratioP2;P2;SDS_P1;SDS_P2;PMS_P1;PMS_P2;Temp;Humidity;BMP_temperature;BMP_pressure;BME280_temperature;BME280_humidity;BME280_pressure;Samples;Min_cycle;Max_cycle;Signal;HPM_P1;HPM_P2
2022/08/23 00:01:55;;;;;;;22.73;16.55;;;;;;;;;;5012014;28;20234;-67
2022/08/23 00:04:23;;;;;;;22.35;15.50;;;;;;;;;;5025811;28;20788;-68
2022/08/23 00:06:50;;;;;;;18.60;16.02;;;;;;;;;;5025545;28;21969;-67
2022/08/23 00:09:17;;;;;;;19.85;17.58;;;;;;;;;;5019100;28;20198;-67
2022/08/23 00:11:44;;;;;;;25.55;17.95;;;;;;;;;;5025084;28;20303;-68
2022/08/23 00:14:12;;;;;;;26.65;18.15;;;;;;;;;;5024714;28;20213;-68
2022/08/23 00:16:39;;;;;;;23.08;17.70;;;;;;;;;;5025971;28;20238;-66
2022/08/23 00:19:08;;;;;;;23.85;19.23;;;;;;;;;;5023026;28;20222;-67
2022/08/23 00:21:35;;;;;;;34.20;22.38;;;;;;;;;;5024598;28;20732;-68
2022/08/23 00:24:02;;;;;;;25.55;19.60;;;;;;;;;;5027268;28;20210;-67
2022/08/23 00:26:44;;;;;;;32.58;20.35;;;;;;;;;;5023707;28;20234;-66
2022/08/23 00:29:11;;;;;;;26.90;21.92;;;;;;;;;;5025028;28;20202;-68
2022/08/23 00:31:37;;;;;;;33.33;21.17;;;;;;;;;;5025750;28;20206;-66
2022/08/23 00:34:04;;;;;;;32.20;20.25;;;;;;;;;;5026768;28;20243;-68
2022/08/23 00:36:32;;;;;;;27.70;19.95;;;;;;;;;;5027104;28;20216;-68
2022/08/23 00:38:59;;;;;;;30.83;20.38;;;;;;;;;;5026465;28;20689;-67
2022/08/23 00:41:25;;;;;;;28.40;19.85;;;;;;;;;;5025954;28;20210;-67
2022/08/23 00:49:25;;;;;;;22.25;17.70;;;;;;;;;;5030706;28;20536;-68
2022/08/23 00:51:57;;;;;;;26.15;19.88;;;;;;;;;;5029327;28;20203;-67
2022/08/23 00:54:24;;;;;;;21.83;18.30;;;;;;;;;;5029274;28;20986;-68
2022/08/23 00:56:51;;;;;;;27.17;20.17;;;;;;;;;;5030820;28;20211;-67
2022/08/23 00:59:17;;;;;;;21.02;18.77;;;;;;;;;;5027765;28;20303;-69
2022/08/23 01:01:44;;;;;;;21.00;18.73;;;;;;;;;;5029890;28;20287;-69
2022/08/23 01:04:12;;;;;;;29.85;19.95;;;;;;;;;;5028465;28;20897;-65
2022/08/23 01:06:43;;;;;;;35.13;19.10;;;;;;;;;;5030138;28;20226;-66
2022/08/23 01:09:13;;;;;;;25.08;19.58;;;;;;;;;;5026707;28;20204;-66
2022/08/23 01:11:42;;;;;;;31.55;21.35;;;;;;;;;;5023886;28;20286;-66
2022/08/23 01:14:11;;;;;;;30.77;21.73;;;;;;;;;;5029404;28;20304;-65
2022/08/23 01:16:40;;;;;;;32.33;22.33;;;;;;;;;;5028582;28;20595;-66
2022/08/23 01:19:12;;;;;;;31.30;22.10;;;;;;;;;;5026491;28;21115;-66
2022/08/23 01:21:40;;;;;;;27.95;20.88;;;;;;;;;;5027920;28;20907;-66
2022/08/23 01:24:09;;;;;;;38.20;23.23;;;;;;;;;;5028589;28;20206;-66
2022/08/23 01:26:35;;;;;;;33.13;23.50;;;;;;;;;;5028231;28;20896;-67
2022/08/23 01:29:03;;;;;;;34.10;22.90;;;;;;;;;;5028377;28;20202;-67
2022/08/23 01:31:29;;;;;;;28.98;23.80;;;;;;;;;;5028180;28;20207;-67
2022/08/23 01:33:58;;;;;;;32.08;22.50;;;;;;;;;;5028633;28;20195;-67
2022/08/23 01:36:25;;;;;;;34.90;21.77;;;;;;;;;;5027776;28;20202;-66
2022/08/23 01:38:52;;;;;;;30.40;20.23;;;;;;;;;;5025815;28;20226;-67
2022/08/23 01:41:20;;;;;;;23.77;19.52;;;;;;;;;;5026924;28;20202;-68
2022/08/23 01:43:47;;;;;;;21.70;17.67;;;;;;;;;;5027051;28;20237;-67
2022/08/23 01:46:16;;;;;;;18.70;16.13;;;;;;;;;;5026604;28;20695;-67
2022/08/23 01:48:44;;;;;;;16.77;14.63;;;;;;;;;;5026445;28;20221;-67
2022/08/23 01:51:11;;;;;;;16.58;14.48;;;;;;;;;;5022742;28;20305;-66
2022/08/23 01:53:37;;;;;;;17.98;14.23;;;;;;;;;;5010682;28;20614;-68
2022/08/23 01:56:04;;;;;;;14.85;13.45;;;;;;;;;;5016343;28;21709;-66
2022/08/23 01:58:33;;;;;;;16.13;14.43;;;;;;;;;;5012281;28;20206;-68
2022/08/23 02:01:00;;;;;;;18.08;15.25;;;;;;;;;;5018503;28;20248;-67
2022/08/23 02:03:27;;;;;;;18.98;15.38;;;;;;;;;;5026551;28;20367;-67
2022/08/23 02:05:54;;;;;;;18.38;16.00;;;;;;;;;;5026479;28;20731;-67
2022/08/23 02:11:07;;;;;;;17.60;15.38;;;;;;;;;;5027256;28;20194;-68
2022/08/23 02:13:35;;;;;;;16.98;15.38;;;;;;;;;;5027652;28;20202;-66
2022/08/23 02:16:02;;;;;;;15.68;14.15;;;;;;;;;;5026719;28;20256;-67
2022/08/23 02:18:29;;;;;;;16.17;14.57;;;;;;;;;;5024932;28;20211;-67
2022/08/23 02:20:56;;;;;;;18.48;14.93;;;;;;;;;;5028618;28;20285;-67
2022/08/23 02:23:23;;;;;;;15.95;14.32;;;;;;;;;;5027893;28;20279;-68
2022/08/23 02:25:50;;;;;;;15.88;14.20;;;;;;;;;;5027975;28;20198;-67
2022/08/23 02:28:17;;;;;;;24.17;15.88;;;;;;;;;;5027197;28;20701;-67
2022/08/23 02:30:46;;;;;;;17.55;15.57;;;;;;;;;;5026689;28;20718;-67
2022/08/23 02:33:12;;;;;;;17.13;14.50;;;;;;;;;;5029159;28;20885;-68
2022/08/23 02:35:39;;;;;;;20.05;16.45;;;;;;;;;;5027627;28;21749;-67
2022/08/23 02:38:06;;;;;;;18.83;15.63;;;;;;;;;;5027218;28;20310;-67
2022/08/23 02:40:32;;;;;;;21.30;15.65;;;;;;;;;;5028110;28;20280;-67
2022/08/23 02:42:59;;;;;;;16.73;15.02;;;;;;;;;;5027045;28;20222;-67
2022/08/23 02:45:26;;;;;;;19.33;16.35;;;;;;;;;;5028018;28;20298;-67
2022/08/23 02:47:54;;;;;;;17.33;14.98;;;;;;;;;;5029404;28;20210;-67
2022/08/23 02:50:21;;;;;;;18.33;14.40;;;;;;;;;;5026390;28;20206;-67
2022/08/23 02:52:47;;;;;;;16.85;13.73;;;;;;;;;;5028191;28;20287;-67
2022/08/23 02:55:15;;;;;;;14.30;12.82;;;;;;;18.83;nan;94592.13;5026937;28;20210;-66
2022/08/23 02:57:41;;;;;;;16.80;13.27;;;;;;;;;;5027909;28;20229;-68
2022/08/23 03:00:09;;;;;;;16.00;13.98;;;;;;;;;;5027363;28;21114;-66
2022/08/23 03:02:36;;;;;;;16.80;13.93;;;;;;;;;;5027710;28;20779;-67
2022/08/23 03:05:04;;;;;;;15.80;14.30;;;;;;;;;;5025763;28;20733;-66
2022/08/23 03:07:31;;;;;;;14.90;12.73;;;;;;;;;;5026208;28;20676;-67
2022/08/23 03:09:58;;;;;;;13.45;12.00;;;;;;;;;;5026168;28;20766;-67
2022/08/23 03:12:25;;;;;;;13.30;11.95;;;;;;;;;;5026719;28;20210;-67
2022/08/23 03:14:52;;;;;;;14.38;11.95;;;;;;;;;;5026727;28;20221;-67
2022/08/23 03:17:18;;;;;;;15.60;13.02;;;;;;;;;;5027038;28;20217;-66
2022/08/23 03:19:45;;;;;;;14.20;12.57;;;;;;;;;;5026040;28;20292;-67
2022/08/23 03:22:13;;;;;;;13.60;11.10;;;;;;;;;;5027370;28;20206;-67
2022/08/23 03:24:40;;;;;;;13.05;11.75;;;;;;;;;;5028341;28;20276;-66
2022/08/23 03:27:07;;;;;;;12.40;11.18;;;;;;;;;;5027555;28;20203;-66
2022/08/23 03:29:33;;;;;;;14.23;10.98;;;;;;;;;;5026023;28;20301;-68
2022/08/23 03:32:00;;;;;;;12.23;10.95;;;;;;;;;;5027963;28;20206;-67
2022/08/23 03:34:26;;;;;;;16.23;11.52;;;;;;;;;;5027333;28;20205;-67
2022/08/23 03:36:53;;;;;;;18.38;12.88;;;;;;;;;;5027330;28;20202;-66
2022/08/23 03:39:21;;;;;;;20.13;13.43;;;;;;;;;;5027931;28;20284;-66
2022/08/23 03:41:47;;;;;;;15.63;14.02;;;;;;;;;;5027818;28;20215;-68
2022/08/23 03:44:14;;;;;;;12.95;11.80;;;;;;;;;;5027946;28;20211;-67
2022/08/23 03:46:41;;;;;;;16.02;13.23;;;;;;;;;;5027569;28;20211;-68
2022/08/23 03:49:08;;;;;;;13.38;12.07;;;;;;;;;;5027062;28;21845;-67
2022/08/23 03:51:34;;;;;;;11.63;10.57;;;;;;;;;;5028197;28;20207;-66
2022/08/23 03:54:01;;;;;;;12.20;11.07;;;;;;;;;;5027255;28;20668;-66
2022/08/23 03:56:30;;;;;;;11.23;10.10;;;;;;;;;;5027177;28;20305;-66
2022/08/23 03:59:01;;;;;;;11.38;10.10;;;;;;;;;;5025922;28;20287;-66
2022/08/23 04:01:27;;;;;;;11.10;9.43;;;;;;;;;;5027014;28;20703;-67
2022/08/23 04:03:54;;;;;;;11.38;9.10;;;;;;;;;;5027125;28;20267;-68
2022/08/23 04:06:20;;;;;;;10.15;9.25;;;;;;;;;;5027745;28;20226;-68
2022/08/23 04:08:47;;;;;;;10.05;9.10;;;;;;;;;;5027645;28;20210;-68
2022/08/23 04:11:13;;;;;;;9.82;8.65;;;;;;;;;;5026576;28;20206;-68
2022/08/23 04:13:42;;;;;;;10.45;9.45;;;;;;;;;;5028627;28;20315;-68
2022/08/23 04:16:09;;;;;;;10.35;9.43;;;;;;;;;;5028832;28;20206;-68
2022/08/23 04:18:35;;;;;;;9.18;8.52;;;;;;;;;;5029616;28;20207;-68
2022/08/23 04:21:03;;;;;;;13.18;8.70;;;;;;;;;;5031051;28;20335;-69
2022/08/23 04:23:30;;;;;;;10.68;9.75;;;;;;;;;;5030502;28;20198;-68
2022/08/23 04:25:56;;;;;;;11.60;10.60;;;;;;;;;;5029202;28;20213;-68
2022/08/23 04:28:23;;;;;;;12.82;11.73;;;;;;;;;;5030340;28;20332;-68
2022/08/23 04:30:51;;;;;;;16.02;12.40;;;;;;;;;;5030081;28;20238;-68
2022/08/23 04:33:18;;;;;;;17.25;13.55;;;;;;;;;;5031233;28;20249;-69
2022/08/23 04:35:45;;;;;;;20.25;15.93;;;;;;;;;;5030628;28;20283;-69
2022/08/23 04:38:11;;;;;;;26.17;17.77;;;;;;;;;;5031339;28;20268;-68
2022/08/23 04:43:21;;;;;;;22.38;19.20;;;;;;;;;;5031049;28;20271;-66
2022/08/23 04:45:48;;;;;;;22.65;19.70;;;;;;;;;;5030699;28;20244;-67
2022/08/23 04:48:16;;;;;;;27.88;19.38;;;;;;;;;;5029427;28;20674;-66
2022/08/23 04:50:42;;;;;;;27.50;22.02;;;;;;;;;;5029511;28;20207;-67
2022/08/23 04:53:10;;;;;;;28.67;21.67;;;;;;;;;;5031270;28;22086;-66
2022/08/23 04:55:37;;;;;;;22.05;19.80;;;;;;;;;;5029702;28;21232;-67
2022/08/23 04:58:04;;;;;;;24.10;20.00;;;;;;;;;;5030526;28;20711;-68
2022/08/23 05:00:30;;;;;;;24.80;21.88;;;;;;;;;;5028596;28;20734;-67
2022/08/23 05:02:57;;;;;;;26.42;20.65;;;;;;;;;;5030000;28;21829;-68
2022/08/23 05:05:26;;;;;;;25.15;21.80;;;;;;;;;;5030807;28;20409;-68
2022/08/23 05:07:52;;;;;;;23.75;18.83;;;;;;;;;;5029080;28;20734;-68
2022/08/23 05:10:19;;;;;;;29.52;21.73;;;;;;;;;;5028855;28;22253;-67
2022/08/23 05:12:46;;;;;;;24.42;21.33;;;;;;;;;;5030547;28;20661;-67
2022/08/23 05:15:13;;;;;;;26.08;20.95;;;;;;;;;;5029903;28;20211;-67
2022/08/23 05:17:40;;;;;;;22.38;19.83;;;;;;;;;;5030063;28;20198;-68
2022/08/23 05:20:07;;;;;;;24.80;19.65;;;;;;;;;;5027186;28;20233;-69
2022/08/23 05:22:35;;;;;;;25.08;21.17;;;;;;;;;;5028778;28;20319;-68
2022/08/23 05:25:02;;;;;;;22.30;19.95;;;;;;;;;;5028631;28;20230;-68
2022/08/23 05:27:28;;;;;;;20.30;18.15;;;;;;;;;;5028735;28;20339;-68
2022/08/23 05:29:55;;;;;;;19.50;17.65;;;;;;;;;;5027352;28;20202;-67
2022/08/23 05:32:21;;;;;;;19.58;17.17;;;;;;;;;;5028421;28;20210;-66
2022/08/23 05:34:48;;;;;;;17.92;16.25;;;;;;;;;;5028298;28;20683;-67
2022/08/23 05:37:15;;;;;;;24.33;16.95;;;;;;;;;;5028825;28;20221;-68
2022/08/23 05:39:43;;;;;;;20.88;17.67;;;;;;;;;;5026419;28;20355;-67
2022/08/23 05:42:10;;;;;;;22.02;17.38;;;;;;;;;;5029203;28;21525;-69
2022/08/23 05:44:37;;;;;;;25.13;17.38;;;;;;;;;;5027404;28;20654;-67
2022/08/23 05:47:04;;;;;;;21.20;16.88;;;;;;;;;;5030844;28;20252;-68
2022/08/23 05:49:31;;;;;;;19.08;17.05;;;;;;;;;;5029444;28;20248;-68
2022/08/23 05:51:58;;;;;;;19.25;17.45;;;;;;;;;;5028397;28;20202;-68
2022/08/23 05:54:24;;;;;;;18.63;16.30;;;;;;;;;;5028770;28;20263;-68
2022/08/23 05:56:52;;;;;;;17.42;15.27;;;;;;;;;;5029372;28;20744;-68
2022/08/23 05:59:19;;;;;;;21.55;15.93;;;;;;;;;;5029674;28;20218;-67
2022/08/23 06:01:45;;;;;;;17.42;15.13;;;;;;;;;;5028489;28;20248;-67
2022/08/23 06:04:12;;;;;;;14.95;11.95;;;;;;;;;;5028716;28;20213;-67
2022/08/23 06:06:39;;;;;;;13.07;11.88;;;;;;;;;;5028962;28;20688;-66
2022/08/23 06:09:07;;;;;;;15.70;13.27;;;;;;;;;;5028659;28;20798;-67
2022/08/23 06:11:34;;;;;;;20.65;13.55;;;;;;;;;;5027912;28;20206;-66
2022/08/23 06:14:02;;;;;;;13.52;12.43;;;;;;;;;;5029192;28;20206;-67
2022/08/23 06:16:30;;;;;;;17.05;12.40;;;;;;;;;;5028214;28;20704;-67
2022/08/23 06:18:57;;;;;;;18.77;12.88;;;;;;;;;;5030093;28;20847;-66
2022/08/23 06:21:24;;;;;;;16.77;13.02;;;;;;;;;;5026385;28;20236;-69
2022/08/23 06:23:51;;;;;;;20.75;14.05;;;;;;;;;;5027967;28;20202;-68
2022/08/23 06:26:18;;;;;;;13.40;12.30;;;;;;;;;;5029399;28;20210;-68
2022/08/23 06:28:46;;;;;;;19.38;13.60;;;;;;;;;;5029635;28;20205;-67
2022/08/23 06:31:13;;;;;;;15.10;13.70;;;;;;;;;;5028279;28;20707;-68
2022/08/23 06:33:41;;;;;;;14.57;13.18;;;;;;;;;;5028025;28;21030;-69
2022/08/23 06:36:08;;;;;;;18.65;13.68;;;;;;;;;;5028368;28;20256;-68
2022/08/23 06:38:35;;;;;;;15.43;13.52;;;;;;;;;;5028350;28;20242;-69
2022/08/23 06:41:02;;;;;;;20.48;14.38;;;;;;;;;;5027981;28;20656;-69
2022/08/23 06:43:29;;;;;;;14.73;13.15;;;;;;;;;;5027712;28;20295;-70
2022/08/23 06:45:55;;;;;;;17.30;13.20;;;;;;;;;;5028108;28;20749;-67
2022/08/23 06:48:23;;;;;;;14.38;12.98;;;;;;;;;;5028430;28;20206;-68
2022/08/23 06:50:50;;;;;;;14.43;12.88;;;;;;;;;;5027369;28;20199;-66
2022/08/23 06:53:16;;;;;;;14.68;13.13;;;;;;;;;;5028501;28;21326;-67
2022/08/23 06:55:43;;;;;;;15.60;13.05;;;;;;;;;;5028116;28;20769;-67
2022/08/23 06:58:09;;;;;;;13.63;12.27;;;;;;;;;;5027558;28;20310;-67
2022/08/23 07:00:36;;;;;;;14.35;13.07;;;;;;;;;;5024590;28;20223;-68
2022/08/23 07:03:02;;;;;;;22.92;13.95;;;;;;;;;;5026145;28;20234;-67
2022/08/23 07:05:31;;;;;;;21.98;13.55;;;;;;;;;;5025366;28;20714;-68
2022/08/23 07:07:57;;;;;;;15.15;13.68;;;;;;;;;;5026070;28;20216;-67
2022/08/23 07:10:24;;;;;;;14.75;12.90;;;;;;;;;;5025540;28;20214;-68
2022/08/23 07:12:50;;;;;;;15.13;13.65;;;;;;;;;;5027211;28;20203;-66
2022/08/23 07:15:17;;;;;;;28.60;18.27;;;;;;;;;;5026350;28;20279;-67
2022/08/23 07:17:43;;;;;;;15.00;13.40;;;;;;;;;;5027241;28;20684;-67
2022/08/23 07:20:10;;;;;;;16.10;14.55;;;;;;;;;;5026422;28;20377;-67
2022/08/23 07:22:38;;;;;;;19.75;14.68;;;;;;;;;;5027793;28;20206;-66
2022/08/23 07:25:05;;;;;;;17.38;15.60;;;;;;;;;;5028416;28;20198;-66
2022/08/23 07:27:32;;;;;;;15.60;13.88;;;;;;;;;;5028885;28;20611;-67
2022/08/23 07:29:58;;;;;;;15.13;13.52;;;;;;;;;;5026134;28;20263;-67
2022/08/23 07:32:25;;;;;;;15.02;13.55;;;;;;;;;;5027093;28;20203;-67
2022/08/23 07:34:51;;;;;;;15.93;12.25;;;;;;;;;;5026968;28;21425;-65
2022/08/23 07:37:18;;;;;;;15.77;12.65;;;;;;;;;;5027123;28;20206;-68
2022/08/23 07:39:45;;;;;;;15.38;11.80;;;;;;;;;;5026514;28;20210;-66
2022/08/23 07:42:12;;;;;;;13.00;11.90;;;;;;;;;;5026377;28;20905;-66
2022/08/23 07:44:38;;;;;;;17.30;11.70;;;;;;;;;;5026825;28;20206;-65
2022/08/23 07:47:05;;;;;;;17.35;14.18;;;;;;;;;;5029536;28;20661;-66
2022/08/23 07:49:32;;;;;;;14.45;13.00;;;;;;;;;;5028028;28;20206;-67
2022/08/23 07:51:58;;;;;;;12.85;11.73;;;;;;;;;;5027286;28;20198;-64
2022/08/23 07:54:26;;;;;;;13.73;12.30;;;;;;;;;;5026524;28;20211;-67
2022/08/23 07:56:54;;;;;;;15.07;12.82;;;;;;;;;;5027038;28;20219;-66
2022/08/23 07:59:21;;;;;;;12.23;11.10;;;;;;;;;;5027691;28;20210;-66
2022/08/23 08:01:47;;;;;;;13.25;11.93;;;;;;;;;;5025774;28;20266;-65
2022/08/23 08:04:14;;;;;;;12.82;11.52;;;;;;;;;;5027212;28;20202;-64
2022/08/23 08:06:41;;;;;;;12.20;11.18;;;;;;;;;;5026791;28;20217;-67
2022/08/23 08:09:09;;;;;;;12.75;11.27;;;;;;;;;;5028110;28;20234;-67
2022/08/23 08:11:35;;;;;;;12.95;11.60;;;;;;;;;;5026248;28;20647;-65
2022/08/23 08:14:04;;;;;;;12.63;11.32;;;;;;;;;;5027404;28;20202;-66
2022/08/23 08:16:33;;;;;;;19.35;12.30;;;;;;;25.27;nan;94746.97;5026678;28;20218;-68
2022/08/23 08:19:03;;;;;;;15.25;12.50;;;;;;;25.13;nan;94749.25;5026004;28;20351;-67
2022/08/23 08:21:30;;;;;;;12.90;11.63;;;;;;;;;;5025284;28;21895;-66
2022/08/23 08:23:57;;;;;;;13.57;12.30;;;;;;;25.19;nan;94759.09;5026481;28;20210;-67
2022/08/23 08:26:26;;;;;;;13.77;12.20;;;;;;;24.92;nan;94768.53;5025770;28;20765;-66
2022/08/23 08:28:54;;;;;;;19.27;12.40;;;;;;;24.90;nan;94775.66;5026172;28;20910;-65
2022/08/23 08:31:22;;;;;;;15.27;11.65;;;;;;;;;;5026250;28;20222;-65
2022/08/23 08:33:49;;;;;;;14.55;13.10;;;;;;;;;;5026675;28;20211;-65
2022/08/23 08:36:33;;;;;;;13.45;12.15;;;;;;;;;;5026391;28;20211;-66
2022/08/23 08:39:00;;;;;;;14.73;12.77;;;;;;;;;;5025453;28;20293;-66
2022/08/23 08:41:35;;;;;;;19.30;13.75;;;;;;;;;;5025395;28;20226;-66
2022/08/23 08:44:07;;;;;;;14.02;12.55;;;;;;;;;;5027380;28;20216;-66
2022/08/23 08:46:39;;;;;;;14.18;12.82;;;;;;;;;;5026807;28;20210;-66
2022/08/23 08:49:09;;;;;;;13.85;12.40;;;;;;;25.39;nan;94761.41;5027032;28;20206;-67
2022/08/23 08:51:44;;;;;;;14.07;12.80;;;;;;;25.29;nan;94757.22;5025882;28;20680;-66
2022/08/23 08:54:15;;;;;;;15.85;13.85;;;;;;;25.30;nan;94756.25;5026384;28;20216;-66
2022/08/23 08:56:42;;;;;;;15.27;13.73;;;;;;;;;;5025996;28;20214;-66
2022/08/23 08:59:15;;;;;;;15.23;13.75;;;;;;;24.81;nan;94740.13;5027292;28;20206;-67
2022/08/23 09:01:43;;;;;;;17.33;14.32;;;;;;;;;;5025278;28;20303;-65
2022/08/23 09:04:11;;;;;;;14.45;13.18;;;;;;;24.79;nan;94720.44;5028016;28;20238;-65
2022/08/23 09:06:43;;;;;;;15.90;14.23;;;;;;;;;;5030433;28;21050;-65
2022/08/23 09:09:15;;;;;;;15.45;13.85;;;;;;;;;;5030373;28;20214;-65
2022/08/23 09:11:51;;;;;;;16.70;14.20;;;;;;;25.20;nan;94729.50;5029394;28;20682;-65
2022/08/23 09:14:42;;;;;;;17.95;13.13;;;;;;;25.56;nan;94725.09;5029558;28;20206;-65
2022/08/23 09:17:20;;;;;;;15.13;13.68;;;;;;;26.11;nan;94723.09;5029845;28;20202;-65
2022/08/23 09:19:50;;;;;;;18.25;14.23;;;;;;;26.59;nan;94713.91;5029640;28;20658;-65
2022/08/23 09:22:24;;;;;;;17.15;12.85;;;;;;;27.29;nan;94712.63;5026484;28;20237;-67
2022/08/23 09:24:51;;;;;;;16.27;14.60;;;;;;;27.07;nan;94719.28;5030078;28;20263;-65
2022/08/23 09:27:18;;;;;;;15.35;13.82;;;;;;;26.97;nan;94720.44;5029799;28;20202;-66
2022/08/23 09:29:54;;;;;;;16.92;14.50;;;;;;;27.13;nan;94723.06;5028256;28;20546;-66
2022/08/23 09:32:34;;;;;;;14.73;13.30;;;;;;;27.06;nan;94717.66;5026815;28;20213;-66
2022/08/23 09:35:11;;;;;;;18.08;14.48;;;;;;;27.25;nan;94720.94;5029198;28;20279;-63
2022/08/23 09:37:53;;;;;;;14.63;13.23;;;;;;;27.35;nan;94716.41;5027226;28;20286;-62
2022/08/23 09:40:25;;;;;;;14.77;12.63;;;;;;;27.56;nan;94721.13;5029166;28;20291;-62
2022/08/23 09:43:05;;;;;;;16.30;13.23;;;;;;;27.79;nan;94716.91;5027320;28;20234;-64
2022/08/23 09:45:34;;;;;;;13.13;11.82;;;;;;;28.07;nan;94715.56;5029650;28;20206;-64
2022/08/23 09:48:03;;;;;;;17.23;14.13;;;;;;;27.24;nan;94724.53;5029420;28;20503;-64
2022/08/23 09:50:34;;;;;;;15.68;11.57;;;;;;;27.03;nan;94732.81;5028248;28;20699;-64
2022/08/23 09:53:01;;;;;;;12.45;11.27;;;;;;;;;;5029257;28;20780;-64
2022/08/23 09:55:32;;;;;;;12.15;10.88;;;;;;;26.36;nan;94730.09;5029420;28;20202;-64
2022/08/23 09:58:00;;;;;;;12.73;11.55;;;;;;;;;;5027778;28;20210;-63
2022/08/23 10:00:31;;;;;;;14.18;12.73;;;;;;;26.76;nan;94720.78;5025764;28;20284;-65
2022/08/23 10:03:21;;;;;;;14.65;12.02;;;;;;;27.36;nan;94728.47;5028549;28;20307;-65
2022/08/23 10:05:50;;;;;;;34.35;25.35;;;;;;;;;;5026649;28;20273;-65
2022/08/23 10:08:23;;;;;;;91.22;66.15;;;;;;;27.87;nan;94716.91;5025655;28;20198;-66
2022/08/23 10:10:53;;;;;;;99.40;75.30;;;;;;;27.89;nan;94720.19;5023677;28;20434;-66
2022/08/23 10:13:20;;;;;;;13.10;11.05;;;;;;;27.82;nan;94715.78;5024790;28;20418;-66
2022/08/23 10:15:56;;;;;;;35.78;30.40;;;;;;;27.94;nan;94722.31;5023971;28;20313;-66
2022/08/23 10:18:35;;;;;;;55.95;44.03;;;;;;;27.52;nan;94710.19;5026011;28;20217;-66
2022/08/23 10:21:04;;;;;;;24.63;21.67;;;;;;;;;;5025258;28;20415;-66
2022/08/23 10:23:41;;;;;;;14.43;13.18;;;;;;;27.29;nan;94730.09;5025371;28;20287;-66
2022/08/23 10:26:10;;;;;;;36.65;30.67;;;;;;;;;;5027779;28;20213;-66
2022/08/23 10:31:40;;;;;;;16.10;14.55;;;;;;;;;;5005342;28;20202;-65
2022/08/23 10:34:19;;;;;;;12.25;10.98;;;;;;;27.92;nan;94719.03;5028629;28;20993;-65
2022/08/23 10:36:59;;;;;;;16.73;13.35;;;;;;;28.24;nan;94713.75;5028757;28;20267;-65
2022/08/23 10:39:28;;;;;;;42.80;34.00;;;;;;;28.30;nan;94707.88;5027932;28;20648;-65
2022/08/23 10:42:02;;;;;;;25.48;22.65;;;;;;;28.05;nan;94708.88;5028015;28;20226;-66
2022/08/23 10:44:34;;;;;;;12.07;10.48;;;;;;;27.59;nan;94707.78;5029645;28;20210;-64
2022/08/23 10:47:10;;;;;;;29.50;23.20;;;;;;;;;;5028220;28;20206;-65
2022/08/23 10:49:39;;;;;;;18.67;16.77;;;;;;;;;;5023470;28;22775;-63
2022/08/23 10:52:08;;;;;;;31.10;26.50;;;;;;;;;;5027184;28;20765;-64
2022/08/23 10:54:45;;;;;;;18.88;16.83;;;;;;;;;;5029297;28;20234;-65
2022/08/23 10:57:14;;;;;;;10.63;9.57;;;;;;;;;;5028057;28;22001;-64
2022/08/23 10:59:42;;;;;;;11.88;10.70;;;;;;;27.33;nan;94700.91;5027637;28;20300;-64
2022/08/23 11:02:21;;;;;;;18.60;11.63;;;;;;;27.13;nan;94701.38;5026745;28;20242;-65
2022/08/23 11:04:56;;;;;;;12.98;10.13;;;;;;;27.01;nan;94699.06;5028755;28;20212;-64
2022/08/23 11:07:28;;;;;;;11.35;10.32;;;;;;;26.54;nan;94701.34;5028127;28;20236;-65
2022/08/23 11:10:07;;;;;;;10.23;9.30;;;;;;;26.39;nan;94703.72;5029697;28;20202;-66
2022/08/23 11:12:49;;;;;;;10.93;9.88;;;;;;;26.27;nan;94694.50;5027719;28;20210;-65
2022/08/23 11:15:30;;;;;;;11.23;10.23;;;;;;;26.86;nan;94699.81;5028706;28;20246;-66
2022/08/23 11:17:59;;;;;;;12.13;10.48;;;;;;;;;;5028197;28;20203;-66
2022/08/23 11:21:06;;;;;;;9.25;8.60;;;;;;;27.34;nan;94709.53;5027314;28;20352;-65
2022/08/23 11:23:40;;;;;;;10.20;8.82;;;;;;;27.57;nan;94705.31;5025543;28;20232;-65
2022/08/23 11:26:09;;;;;;;10.27;9.32;;;;;;;27.77;nan;94711.84;5028598;28;20210;-66
2022/08/23 11:28:42;;;;;;;9.70;8.90;;;;;;;27.64;nan;94700.28;5028222;28;20287;-64
2022/08/23 11:31:29;;;;;;;8.02;7.53;;;;;;;27.06;nan;94691.56;5027005;28;20221;-64
2022/08/23 11:34:03;;;;;;;12.05;8.63;;;;;;;26.86;nan;94685.00;5027447;28;20638;-64
2022/08/23 11:36:33;;;;;;;10.10;9.00;;;;;;;27.23;nan;94702.03;5027062;28;20206;-65
2022/08/23 11:39:05;;;;;;;15.55;9.38;;;;;;;27.59;nan;94686.91;5024489;28;20290;-65
2022/08/23 11:41:32;;;;;;;9.45;8.73;;;;;;;;;;5028097;28;20214;-65
2022/08/23 11:44:24;;;;;;;9.32;8.38;;;;;;;27.69;nan;94646.63;5027734;28;20232;-65
2022/08/23 11:47:03;;;;;;;9.73;8.48;;;;;;;27.40;nan;94688.03;5029164;28;20203;-64
2022/08/23 11:50:06;;;;;;;8.35;7.75;;;;;;;27.12;nan;94679.69;5026899;28;20209;-65
2022/08/23 11:53:04;;;;;;;7.65;7.05;;;;;;;27.03;nan;94691.06;5027399;28;21242;-65
2022/08/23 11:55:51;;;;;;;8.40;7.70;;;;;;;27.01;nan;94690.41;5027747;28;20251;-65
2022/08/23 11:58:23;;;;;;;6.65;6.05;;;;;;;27.21;nan;94683.94;5028224;28;20237;-67
2022/08/23 12:00:54;;;;;;;7.60;6.90;;;;;;;;;;5027367;28;21454;-63
2022/08/23 12:03:25;;;;;;;9.38;8.77;;;;;;;27.96;nan;94686.41;5026484;28;20644;-65
2022/08/23 12:06:10;;;;;;;8.63;7.93;;;;;;;28.08;nan;94678.03;5025195;28;20609;-66
2022/08/23 12:09:00;;;;;;;9.50;8.57;;;;;;;27.36;nan;94686.72;5026313;28;20378;-66
2022/08/23 12:12:05;;;;;;;13.05;8.75;;;;;;;26.43;nan;94681.59;5024857;28;20202;-65
2022/08/23 12:14:35;;;;;;;11.48;8.77;;;;;;;;;;5025871;28;20209;-66
2022/08/23 12:17:04;;;;;;;6.75;6.25;;;;;;;27.13;nan;94683.94;5026199;28;20761;-65
2022/08/23 12:19:35;;;;;;;7.55;7.07;;;;;;;27.50;nan;94691.28;5024180;28;20298;-65
2022/08/23 12:22:07;;;;;;;6.78;6.28;;;;;;;;;;5026312;28;20230;-64
2022/08/23 12:24:42;;;;;;;11.82;6.30;;;;;;;26.99;nan;94687.97;5027610;28;20202;-65
2022/08/23 12:27:21;;;;;;;6.72;6.18;;;;;;;26.96;nan;94683.09;5026709;28;20205;-65
2022/08/23 12:29:57;;;;;;;8.93;6.65;;;;;;;26.87;nan;94675.38;5027750;28;20202;-65
2022/08/23 12:32:32;;;;;;;12.90;6.88;;;;;;;27.06;nan;94680.31;5028468;28;20381;-67
2022/08/23 12:35:18;;;;;;;5.47;5.15;;;;;;;26.37;nan;94678.81;5027523;28;20214;-66
2022/08/23 12:37:56;;;;;;;5.70;4.80;;;;;;;25.94;nan;94693.53;5026753;28;20202;-65
2022/08/23 12:40:32;;;;;;;5.88;4.70;;;;;;;25.92;nan;94684.25;5031343;28;20206;-64
2022/08/23 12:43:05;;;;;;;6.30;5.13;;;;;;;25.80;nan;94686.28;5032293;28;20226;-63
2022/08/23 12:45:39;;;;;;;5.35;4.95;;;;;;;25.52;nan;94672.53;5032731;28;20202;-66
2022/08/23 12:48:09;;;;;;;6.05;5.30;;;;;;;25.73;nan;94674.84;5032216;28;20207;-66
2022/08/23 12:50:39;;;;;;;6.90;5.10;;;;;;;25.89;nan;94674.94;5026950;28;20300;-66
2022/08/23 12:53:12;;;;;;;8.15;5.32;;;;;;;25.61;nan;94676.03;5031454;28;20688;-66
2022/08/23 12:55:42;;;;;;;6.32;5.05;;;;;;;25.70;nan;94667.34;5031136;28;20725;-66
2022/08/23 12:58:10;;;;;;;4.95;4.65;;;;;;;25.95;nan;94673.53;5030390;28;20238;-67
2022/08/23 13:00:42;;;;;;;5.38;4.97;;;;;;;25.87;nan;94681.28;5030668;28;20928;-67
2022/08/23 13:03:16;;;;;;;5.88;5.35;;;;;;;25.70;nan;94670.78;5029591;28;20800;-64
2022/08/23 13:05:46;;;;;;;5.80;5.22;;;;;;;25.65;nan;94667.00;5030326;28;20226;-64
2022/08/23 13:08:17;;;;;;;6.53;5.63;;;;;;;25.55;nan;94667.03;5030550;28;20206;-66
2022/08/23 13:10:46;;;;;;;5.60;5.20;;;;;;;25.66;nan;94669.44;5030780;28;20206;-64
2022/08/23 13:13:17;;;;;;;6.38;5.82;;;;;;;25.77;nan;94665.75;5031666;28;21656;-65
2022/08/23 13:15:50;;;;;;;7.88;6.93;;;;;;;25.73;nan;94670.47;5029925;28;20206;-65
2022/08/23 13:18:24;;;;;;;8.52;6.60;;;;;;;;;;5030085;28;20210;-65
2022/08/23 13:21:15;;;;;;;6.93;6.38;;;;;;;;;;5029188;28;20206;-66
2022/08/23 13:23:42;;;;;;;6.00;5.50;;;;;;;25.44;nan;94669.91;5030665;28;20226;-65
2022/08/23 13:26:23;;;;;;;6.32;5.68;;;;;;;;;;5030521;28;20288;-65
2022/08/23 13:29:01;;;;;;;6.28;5.88;;;;;;;25.50;nan;94668.47;5029201;28;20202;-65
2022/08/23 13:31:48;;;;;;;7.50;6.65;;;;;;;25.26;nan;94656.06;5029354;28;20741;-65
2022/08/23 13:34:30;;;;;;;6.97;6.38;;;;;;;;;;5029269;28;20314;-65
2022/08/23 13:36:58;;;;;;;6.95;6.43;;;;;;;24.78;nan;94657.25;5029296;28;20555;-65
2022/08/23 13:39:24;;;;;;;10.85;5.80;;;;;;;;;;5029721;28;20974;-67
2022/08/23 13:41:52;;;;;;;6.32;5.72;;;;;;;24.51;nan;94657.28;5028817;28;20872;-66
2022/08/23 13:44:20;;;;;;;6.68;6.03;;;;;;;24.61;nan;94660.66;5030280;28;20268;-65
2022/08/23 13:46:48;;;;;;;5.90;5.32;;;;;;;;;;5029276;28;22700;-65
2022/08/23 13:49:19;;;;;;;6.53;5.93;;;;;;;24.69;nan;94658.13;5029748;28;20870;-65
2022/08/23 13:52:01;;;;;;;5.85;5.38;;;;;;;;;;5029456;28;20271;-65
2022/08/23 13:54:29;;;;;;;5.80;5.50;;;;;;;24.71;nan;94630.22;5030028;28;20260;-66